createdAt,value
2018-03-02T00:01:45.379Z,-6.23
2018-03-02T00:04:13.692Z,-6.21
2018-03-02T00:06:42.807Z,-6.11
2018-03-02T00:09:11.092Z,-6.08
2018-03-02T00:11:39.384Z,-6.13
2018-03-02T00:14:07.665Z,-6.13
2018-03-02T00:16:35.943Z,-6.11
2018-03-02T00:19:04.280Z,-6.37
2018-03-02T00:21:34.343Z,-6.23
2018-03-02T00:24:02.645Z,-6.47
2018-03-02T00:26:30.927Z,-6.41
2018-03-02T00:28:59.298Z,-6.41
2018-03-02T00:31:27.584Z,-6.62
2018-03-02T00:33:55.857Z,-6.42
2018-03-02T00:36:24.134Z,-6.39
2018-03-02T00:38:52.461Z,-6.49
2018-03-02T00:41:20.740Z,-6.33
2018-03-02T00:43:49.070Z,-6.15
2018-03-02T00:46:18.126Z,-6.36
2018-03-02T00:48:46.436Z,-6.38
2018-03-02T00:51:14.716Z,-6.39
2018-03-02T00:53:43.056Z,-6.38
2018-03-02T00:56:11.348Z,-6.43
2018-03-02T00:58:39.617Z,-6.35
2018-03-02T01:01:08.686Z,-6.58
2018-03-02T01:03:36.958Z,-6.55
2018-03-02T01:06:05.230Z,-6.62
2018-03-02T01:08:33.521Z,-6.59
2018-03-02T01:11:01.817Z,-6.52
2018-03-02T01:13:30.116Z,-6.56
2018-03-02T01:15:58.425Z,-6.46
2018-03-02T01:18:27.481Z,-6.42
2018-03-02T01:20:55.759Z,-6.40
2018-03-02T01:23:24.044Z,-6.62
2018-03-02T01:25:53.100Z,-6.54
2018-03-02T01:28:21.458Z,-6.39
2018-03-02T01:30:49.764Z,-6.37
2018-03-02T01:33:18.050Z,-6.71
2018-03-02T01:35:46.356Z,-6.64
2018-03-02T01:38:15.409Z,-6.59
2018-03-02T01:40:43.702Z,-6.64
2018-03-02T01:43:11.988Z,-6.54
2018-03-02T01:45:41.056Z,-6.54
2018-03-02T01:48:09.319Z,-6.47
2018-03-02T01:50:37.607Z,-6.51
2018-03-02T01:53:05.902Z,-6.55
2018-03-02T01:55:34.199Z,-6.57
2018-03-02T01:58:03.243Z,-6.62
2018-03-02T02:00:31.526Z,-6.61
2018-03-02T02:02:59.811Z,-6.57
2018-03-02T02:05:28.083Z,-6.50
2018-03-02T02:07:56.365Z,-6.74
2018-03-02T02:10:24.744Z,-6.69
2018-03-02T02:12:53.074Z,-6.72
2018-03-02T02:15:21.363Z,-6.83
2018-03-02T02:17:49.656Z,-6.75
2018-03-02T02:20:17.924Z,-6.58
2018-03-02T02:22:46.214Z,-6.79
2018-03-02T02:25:14.487Z,-6.73
2018-03-02T02:27:42.818Z,-6.69
2018-03-02T02:30:11.913Z,-6.52
2018-03-02T02:32:40.985Z,-6.50
2018-03-02T02:35:09.248Z,-6.58
2018-03-02T02:37:37.525Z,-6.61
2018-03-02T02:40:05.843Z,-6.43
2018-03-02T02:42:34.871Z,-6.52
2018-03-02T02:45:03.175Z,-6.56
2018-03-02T02:47:31.461Z,-6.53
2018-03-02T02:49:59.747Z,-6.79
2018-03-02T02:52:28.032Z,-6.60
2018-03-02T02:54:57.081Z,-6.70
2018-03-02T02:57:25.381Z,-6.62
2018-03-02T02:59:53.687Z,-6.82
2018-03-02T03:02:22.731Z,-6.61
2018-03-02T03:04:51.019Z,-6.57
2018-03-02T03:07:19.295Z,-6.41
2018-03-02T03:09:47.569Z,-6.36
2018-03-02T03:12:15.858Z,-6.42
2018-03-02T03:14:44.124Z,-6.52
2018-03-02T03:17:12.427Z,-6.66
2018-03-02T03:19:41.502Z,-6.68
2018-03-02T03:22:09.772Z,-6.78
2018-03-02T03:24:38.049Z,-6.62
2018-03-02T03:27:06.419Z,-6.59
2018-03-02T03:29:34.743Z,-6.58
2018-03-02T03:32:03.778Z,-6.37
2018-03-02T03:34:32.161Z,-6.39
2018-03-02T03:37:00.424Z,-6.40
2018-03-02T03:39:28.696Z,-6.28
2018-03-02T03:41:56.992Z,-6.32
2018-03-02T03:44:25.258Z,-6.25
2018-03-02T03:46:53.534Z,-6.37
2018-03-02T03:49:21.839Z,-6.28
2018-03-02T03:51:50.108Z,-6.45
2018-03-02T03:54:18.395Z,-6.41
2018-03-02T03:56:46.663Z,-6.33
2018-03-02T03:59:14.996Z,-6.30
2018-03-02T04:01:43.344Z,-6.29
2018-03-02T04:04:12.439Z,-6.13
2018-03-02T04:06:41.497Z,-6.30
2018-03-02T04:09:09.791Z,-6.19
2018-03-02T04:11:38.056Z,-6.24
2018-03-02T04:14:06.328Z,-6.22
2018-03-02T04:16:34.657Z,-6.22
2018-03-02T04:19:03.699Z,-6.39
2018-03-02T04:21:31.994Z,-6.17
2018-03-02T04:24:00.263Z,-6.38
2018-03-02T04:26:28.534Z,-6.29
2018-03-02T04:28:56.819Z,-6.34
2018-03-02T04:31:25.100Z,-6.35
2018-03-02T04:33:53.372Z,-6.22
2018-03-02T04:36:21.669Z,-6.15
2018-03-02T04:38:50.717Z,-6.13
2018-03-02T04:41:19.011Z,-6.11
2018-03-02T04:43:47.291Z,-6.06
2018-03-02T04:46:15.575Z,-6.14
2018-03-02T04:48:43.871Z,-6.14
2018-03-02T04:51:12.905Z,-6.12
2018-03-02T04:53:41.269Z,-5.97
2018-03-02T04:56:09.539Z,-5.82
2018-03-02T04:58:37.816Z,-5.98
2018-03-02T05:01:06.104Z,-6.14
2018-03-02T05:03:34.387Z,-6.13
2018-03-02T05:06:02.660Z,-6.05
2018-03-02T05:08:30.948Z,-6.03
2018-03-02T05:10:59.223Z,-5.94
2018-03-02T05:13:27.498Z,-5.91
2018-03-02T05:15:55.840Z,-5.92
2018-03-02T05:18:24.118Z,-5.98
2018-03-02T05:20:52.402Z,-6.34
2018-03-02T05:23:20.689Z,-6.38
2018-03-02T05:25:49.012Z,-6.44
2018-03-02T05:28:17.363Z,-6.48
2018-03-02T05:30:45.660Z,-6.49
2018-03-02T05:33:13.942Z,-6.32
2018-03-02T05:35:42.996Z,-6.38
2018-03-02T05:38:11.303Z,-6.49
2018-03-02T05:40:39.564Z,-6.67
2018-03-02T05:43:07.874Z,-6.58
2018-03-02T05:45:36.935Z,-6.85
2018-03-02T05:48:05.212Z,-6.76
2018-03-02T05:50:33.495Z,-6.69
2018-03-02T05:53:01.768Z,-6.63
2018-03-02T05:55:30.118Z,-6.69
2018-03-02T05:57:58.408Z,-6.67
2018-03-02T06:00:26.676Z,-6.87
2018-03-02T06:02:54.958Z,-6.82
2018-03-02T06:05:23.226Z,-6.97
2018-03-02T06:07:51.502Z,-6.83
2018-03-02T06:10:19.788Z,-6.67
2018-03-02T06:12:48.100Z,-6.71
2018-03-02T06:15:16.407Z,-6.67
2018-03-02T06:17:45.432Z,-6.67
2018-03-02T06:20:13.704Z,-6.65
2018-03-02T06:22:41.999Z,-6.49
2018-03-02T06:25:10.291Z,-6.91
2018-03-02T06:27:38.556Z,-6.70
2018-03-02T06:30:06.881Z,-6.60
2018-03-02T06:32:35.956Z,-6.54
2018-03-02T06:35:05.017Z,-6.33
2018-03-02T06:37:33.290Z,-6.43
2018-03-02T06:40:01.555Z,-6.50
2018-03-02T06:42:29.837Z,-6.44
2018-03-02T06:44:58.092Z,-6.22
2018-03-02T06:47:26.430Z,-6.09
2018-03-02T06:49:55.480Z,-6.10
2018-03-02T06:52:23.757Z,-6.25
2018-03-02T06:54:52.137Z,-6.27
2018-03-02T06:57:20.405Z,-6.40
2018-03-02T06:59:48.748Z,-6.50
2018-03-02T07:02:17.776Z,-6.72
2018-03-02T07:04:46.137Z,-6.54
2018-03-02T07:07:14.415Z,-6.73
2018-03-02T07:09:42.692Z,-6.48
2018-03-02T07:12:10.977Z,-6.51
2018-03-02T07:14:39.260Z,-6.49
2018-03-02T07:17:07.579Z,-6.26
2018-03-02T07:19:35.848Z,-6.08
2018-03-02T07:22:04.110Z,-6.17
2018-03-02T07:24:32.408Z,-6.30
2018-03-02T07:27:00.681Z,-6.27
2018-03-02T07:29:29.724Z,-6.27
2018-03-02T07:31:58.003Z,-6.08
2018-03-02T07:34:26.445Z,-5.90
2018-03-02T07:36:55.616Z,-5.91
2018-03-02T07:39:23.896Z,-5.98
2018-03-02T07:41:52.189Z,-5.91
2018-03-02T07:44:21.224Z,-5.63
2018-03-02T07:46:49.602Z,-5.58
2018-03-02T07:49:17.940Z,-5.55
2018-03-02T07:51:46.212Z,-5.40
2018-03-02T07:54:14.499Z,-5.39
2018-03-02T07:56:44.675Z,-5.45
2018-03-02T07:59:12.959Z,-5.46
2018-03-02T08:01:41.243Z,-5.63
2018-03-02T08:04:10.296Z,-5.60
2018-03-02T08:06:44.611Z,-5.51
2018-03-02T08:09:12.867Z,-5.50
2018-03-02T08:11:41.172Z,-5.46
2018-03-02T08:14:09.565Z,-5.45
2018-03-02T08:16:37.842Z,-5.31
2018-03-02T08:19:06.105Z,-5.13
2018-03-02T08:21:34.439Z,-5.40
2018-03-02T08:24:03.512Z,-5.26
2018-03-02T08:26:31.785Z,-5.50
2018-03-02T08:29:00.068Z,-5.15
2018-03-02T08:31:28.336Z,-5.39
2018-03-02T08:33:56.604Z,-5.23
2018-03-02T08:36:24.887Z,-5.40
2018-03-02T08:38:53.156Z,-5.18
2018-03-02T08:41:21.481Z,-4.97
2018-03-02T08:43:50.551Z,-5.17
2018-03-02T08:46:18.824Z,-5.17
2018-03-02T08:48:47.083Z,-5.15
2018-03-02T08:51:15.376Z,-4.98
2018-03-02T08:53:43.655Z,-5.03
2018-03-02T08:56:11.926Z,-5.06
2018-03-02T08:58:40.225Z,-4.98
2018-03-02T09:01:09.295Z,-5.00
2018-03-02T09:03:37.560Z,-4.81
2018-03-02T09:06:05.846Z,-4.71
2018-03-02T09:08:34.110Z,-4.61
2018-03-02T09:11:03.163Z,-4.50
2018-03-02T09:13:31.455Z,-4.64
2018-03-02T09:15:59.732Z,-4.37
2018-03-02T09:18:27.991Z,-4.21
2018-03-02T09:20:56.276Z,-4.07
2018-03-02T09:23:24.552Z,-3.85
2018-03-02T09:25:52.814Z,-3.81
2018-03-02T09:28:21.098Z,-3.94
2018-03-02T09:30:49.358Z,-3.92
2018-03-02T09:33:17.635Z,-4.05
2018-03-02T09:35:45.916Z,-3.97
2018-03-02T09:38:14.181Z,-3.92
2018-03-02T09:40:43.206Z,-4.02
2018-03-02T09:43:11.508Z,-3.93
2018-03-02T09:45:39.898Z,-3.77
2018-03-02T09:48:08.152Z,-3.76
2018-03-02T09:50:36.436Z,-3.51
2018-03-02T09:53:04.712Z,-3.50
2018-03-02T09:55:32.976Z,-3.72
2018-03-02T09:58:01.258Z,-3.58
2018-03-02T10:00:29.538Z,-3.27
2018-03-02T10:02:57.807Z,-3.19
2018-03-02T10:05:26.166Z,-2.91
2018-03-02T10:07:54.431Z,-2.66
2018-03-02T10:10:22.701Z,-2.55
2018-03-02T10:12:50.995Z,-2.45
2018-03-02T10:15:19.282Z,-2.40
2018-03-02T10:17:47.560Z,-2.36
2018-03-02T10:20:15.889Z,-2.16
2018-03-02T10:22:44.907Z,-2.13
2018-03-02T10:25:13.172Z,-2.14
2018-03-02T10:27:41.459Z,-1.93
2018-03-02T10:30:09.740Z,-2.12
2018-03-02T10:32:38.025Z,-1.61
2018-03-02T10:35:06.314Z,-1.38
2018-03-02T10:37:34.586Z,-1.35
2018-03-02T10:40:02.860Z,-1.94
2018-03-02T10:42:31.144Z,-2.13
2018-03-02T10:44:59.400Z,-1.92
2018-03-02T10:47:27.664Z,-1.63
2018-03-02T10:49:55.952Z,-1.84
2018-03-02T10:52:24.222Z,-1.82
2018-03-02T10:54:52.492Z,-1.35
2018-03-02T10:57:20.780Z,-1.63
2018-03-02T10:59:49.060Z,-1.72
2018-03-02T11:02:32.219Z,-1.58
2018-03-02T11:05:05.975Z,-1.31
2018-03-02T11:07:34.268Z,-1.38
2018-03-02T11:10:02.536Z,-1.09
2018-03-02T11:12:30.811Z,-1.00
2018-03-02T11:14:59.093Z,-0.82
2018-03-02T11:17:27.366Z,-0.89
2018-03-02T11:19:55.637Z,-0.53
2018-03-02T11:22:23.926Z,-0.29
2018-03-02T11:24:52.185Z,-0.55
2018-03-02T11:27:20.462Z,-0.40
2018-03-02T11:29:48.744Z,0.03
2018-03-02T11:32:17.013Z,-0.35
2018-03-02T11:34:45.275Z,0.02
2018-03-02T11:37:14.332Z,-0.06
2018-03-02T11:39:42.597Z,0.19
2018-03-02T11:42:10.855Z,-0.27
2018-03-02T11:44:39.141Z,0.22
2018-03-02T11:47:07.449Z,0.04
2018-03-02T11:49:35.698Z,0.54
2018-03-02T11:52:03.960Z,0.19
2018-03-02T11:54:32.217Z,0.38
2018-03-02T11:57:00.496Z,0.45
2018-03-02T11:59:28.839Z,0.50
2018-03-02T12:01:57.896Z,1.25
2018-03-02T12:04:26.148Z,1.61
2018-03-02T12:06:54.411Z,1.64
2018-03-02T12:09:22.730Z,1.77
2018-03-02T12:11:50.944Z,2.01
2018-03-02T12:14:19.966Z,1.71
2018-03-02T12:16:49.295Z,1.30
2018-03-02T12:19:17.563Z,1.57
2018-03-02T12:21:45.820Z,1.62
2018-03-02T12:24:14.096Z,1.25
2018-03-02T12:26:42.348Z,1.73
2018-03-02T12:29:11.413Z,2.13
2018-03-02T12:31:39.673Z,1.89
2018-03-02T12:34:07.935Z,2.07
2018-03-02T12:36:36.272Z,2.51
2018-03-02T12:39:04.482Z,2.84
2018-03-02T12:41:32.747Z,2.69
2018-03-02T12:44:01.026Z,2.68
2018-03-02T12:46:29.303Z,2.88
2018-03-02T12:48:57.585Z,2.68
2018-03-02T12:51:25.832Z,2.58
2018-03-02T12:53:54.104Z,1.98
2018-03-02T12:56:22.355Z,2.26
2018-03-02T12:58:50.615Z,2.13
2018-03-02T13:01:18.883Z,2.28
2018-03-02T13:03:47.144Z,2.37
2018-03-02T13:06:15.399Z,2.22
2018-03-02T13:08:43.674Z,2.52
2018-03-02T13:11:11.932Z,2.83
2018-03-02T13:13:40.953Z,2.63
2018-03-02T13:16:09.219Z,3.15
2018-03-02T13:18:43.329Z,3.55
2018-03-02T13:21:11.601Z,3.30
2018-03-02T13:23:39.860Z,3.73
2018-03-02T13:26:08.882Z,3.84
2018-03-02T13:28:50.699Z,3.39
2018-03-02T13:31:18.984Z,4.08
2018-03-02T13:34:05.131Z,4.86
2018-03-02T13:36:33.402Z,4.72
2018-03-02T13:39:01.664Z,4.76
2018-03-02T13:41:48.481Z,4.39
2018-03-02T13:44:17.508Z,4.58
2018-03-02T13:46:46.344Z,4.58
2018-03-02T13:52:26.988Z,3.90
2018-03-02T13:54:55.256Z,4.54
2018-03-02T13:57:41.211Z,5.11
2018-03-02T14:00:10.304Z,5.19
2018-03-02T14:02:57.111Z,5.54
2018-03-02T14:05:26.156Z,4.72
2018-03-02T14:07:54.408Z,5.16
2018-03-02T14:10:22.663Z,5.56
2018-03-02T14:12:51.705Z,5.50
2018-03-02T14:15:19.958Z,6.16
2018-03-02T14:17:48.219Z,6.86
2018-03-02T14:20:17.269Z,7.25
2018-03-02T14:22:45.523Z,6.48
2018-03-02T14:25:14.587Z,7.10
2018-03-02T14:27:42.860Z,7.14
2018-03-02T14:30:11.901Z,6.77
2018-03-02T14:32:40.176Z,6.27
2018-03-02T14:35:08.462Z,6.04
2018-03-02T14:37:36.751Z,5.76
2018-03-02T14:40:04.995Z,5.35
2018-03-02T14:42:33.268Z,4.88
2018-03-02T14:45:01.517Z,4.46
2018-03-02T14:47:29.779Z,3.92
2018-03-02T14:49:58.822Z,3.72
2018-03-02T14:52:27.860Z,3.66
2018-03-02T14:54:56.876Z,3.20
2018-03-02T14:57:25.153Z,3.02
2018-03-02T14:59:53.409Z,2.88
2018-03-02T15:02:22.432Z,2.35
2018-03-02T15:04:50.703Z,2.56
2018-03-02T15:07:18.954Z,2.27
2018-03-02T15:09:47.991Z,2.28
2018-03-02T15:12:16.277Z,2.56
2018-03-02T15:14:44.527Z,2.12
2018-03-02T15:17:12.814Z,2.24
2018-03-02T15:19:41.087Z,2.31
2018-03-02T15:22:09.339Z,2.11
2018-03-02T15:24:37.595Z,1.71
2018-03-02T15:27:06.643Z,1.85
2018-03-02T15:29:35.017Z,1.86
2018-03-02T15:32:03.303Z,1.83
2018-03-02T15:34:31.645Z,1.44
2018-03-02T15:36:59.898Z,1.26
2018-03-02T15:39:28.911Z,1.28
2018-03-02T15:41:57.203Z,1.33
2018-03-02T15:44:25.462Z,1.28
2018-03-02T15:46:53.785Z,1.14
2018-03-02T15:49:22.065Z,1.18
2018-03-02T15:51:50.316Z,1.18
2018-03-02T15:54:18.595Z,1.18
2018-03-02T15:56:47.755Z,0.90
2018-03-02T15:59:16.027Z,0.75
2018-03-02T16:01:44.635Z,0.44
2018-03-02T16:04:13.320Z,0.55
2018-03-02T16:06:41.707Z,0.68
2018-03-02T16:09:10.024Z,0.64
2018-03-02T16:11:38.360Z,0.54
2018-03-02T16:14:06.651Z,0.70
2018-03-02T16:16:34.970Z,0.86
2018-03-02T16:19:03.990Z,0.77
2018-03-02T16:21:32.260Z,0.76
2018-03-02T16:24:00.558Z,0.45
2018-03-02T16:26:28.969Z,0.18
2018-03-02T16:28:57.258Z,0.34
2018-03-02T16:31:25.616Z,0.26
2018-03-02T16:33:54.374Z,0.11
2018-03-02T16:36:22.850Z,0.16
2018-03-02T16:38:51.437Z,-0.05
2018-03-02T16:41:19.755Z,0.14
2018-03-02T16:43:48.126Z,-0.14
2018-03-02T16:46:16.501Z,-0.11
2018-03-02T16:48:46.383Z,-0.17
2018-03-02T16:51:14.782Z,-0.35
2018-03-02T16:53:43.063Z,-0.33
2018-03-02T16:56:11.377Z,-0.53
2018-03-02T16:58:40.492Z,-0.59
2018-03-02T17:01:09.575Z,-0.62
2018-03-02T17:03:38.623Z,-0.48
2018-03-02T17:06:07.340Z,-0.34
2018-03-02T17:08:35.958Z,-0.54
2018-03-02T17:11:04.300Z,-0.60
2018-03-02T17:13:32.611Z,-0.52
2018-03-02T17:16:01.620Z,-0.60
2018-03-02T17:18:30.029Z,-0.75
2018-03-02T17:20:58.493Z,-0.77
2018-03-02T17:23:26.882Z,-0.60
2018-03-02T17:25:55.317Z,-0.78
2018-03-02T17:28:23.745Z,-0.71
2018-03-02T17:30:53.160Z,-0.82
2018-03-02T17:33:23.222Z,-0.80
2018-03-02T17:35:52.760Z,-1.01
2018-03-02T17:38:22.818Z,-1.42
2018-03-02T17:40:52.516Z,-1.14
2018-03-02T17:43:22.277Z,-1.17
2018-03-02T17:45:52.421Z,-1.05
2018-03-02T17:48:21.737Z,-1.35
2018-03-02T17:50:51.070Z,-1.31
2018-03-02T17:53:20.404Z,-1.46
2018-03-02T17:55:49.713Z,-1.73
2018-03-02T17:58:19.670Z,-1.50
2018-03-02T18:00:48.983Z,-1.55
2018-03-02T18:03:18.282Z,-1.48
2018-03-02T18:05:47.718Z,-1.43
2018-03-02T18:08:17.750Z,-1.79
2018-03-02T18:10:47.042Z,-1.64
2018-03-02T18:13:17.206Z,-1.47
2018-03-02T18:15:46.709Z,-1.70
2018-03-02T18:18:15.950Z,-1.76
2018-03-02T18:20:45.170Z,-1.69
2018-03-02T18:23:14.923Z,-1.57
2018-03-02T18:25:44.177Z,-1.75
2018-03-02T18:28:13.478Z,-1.70
2018-03-02T18:30:42.887Z,-1.69
2018-03-02T18:33:12.134Z,-1.81
2018-03-02T18:35:41.420Z,-1.81
2018-03-02T18:38:10.782Z,-1.79
2018-03-02T18:40:40.075Z,-1.74
2018-03-02T18:43:10.176Z,-1.92
2018-03-02T18:45:40.257Z,-1.98
2018-03-02T18:48:09.679Z,-2.06
2018-03-02T18:50:39.017Z,-2.02
2018-03-02T18:53:08.456Z,-1.99
2018-03-02T18:55:37.870Z,-1.90
2018-03-02T18:58:07.196Z,-1.95
2018-03-02T19:00:36.485Z,-1.88
2018-03-02T19:03:05.951Z,-1.86
2018-03-02T19:05:35.331Z,-2.04
2018-03-02T19:08:05.625Z,-1.96
2018-03-02T19:10:34.871Z,-2.04
2018-03-02T19:13:04.151Z,-2.06
2018-03-02T19:15:35.278Z,-2.08
2018-03-02T19:18:05.660Z,-2.13
2018-03-02T19:20:35.079Z,-2.17
2018-03-02T19:23:04.381Z,-2.32
2018-03-02T19:25:33.812Z,-2.26
2018-03-02T19:28:04.015Z,-2.31
2018-03-02T19:30:33.464Z,-2.32
2018-03-02T19:33:03.747Z,-2.52
2018-03-02T19:35:33.184Z,-2.45
2018-03-02T19:38:02.502Z,-2.45
2018-03-02T19:40:31.947Z,-2.58
2018-03-02T19:43:01.193Z,-2.58
2018-03-02T19:45:30.598Z,-2.64
2018-03-02T19:48:00.260Z,-2.54
2018-03-02T19:50:30.617Z,-2.65
2018-03-02T19:53:01.717Z,-2.65
2018-03-02T19:55:31.607Z,-2.72
2018-03-02T19:58:00.977Z,-2.72
2018-03-02T20:00:30.758Z,-2.60
2018-03-02T20:03:00.363Z,-2.83
2018-03-02T20:05:29.744Z,-2.68
2018-03-02T20:07:59.232Z,-2.71
2018-03-02T20:10:28.697Z,-2.65
2018-03-02T20:12:58.810Z,-2.62
2018-03-02T20:15:29.003Z,-2.58
2018-03-02T20:17:58.416Z,-2.54
2018-03-02T20:20:28.614Z,-2.66
2018-03-02T20:22:57.996Z,-2.70
2018-03-02T20:25:27.371Z,-2.65
2018-03-02T20:27:57.541Z,-2.52
2018-03-02T20:30:26.864Z,-2.76
2018-03-02T20:32:57.172Z,-2.72
2018-03-02T20:35:26.637Z,-2.63
2018-03-02T20:37:55.987Z,-2.57
2018-03-02T20:40:25.364Z,-2.68
2018-03-02T20:42:54.664Z,-2.57
2018-03-02T20:45:23.942Z,-2.40
2018-03-02T20:47:53.373Z,-2.57
2018-03-02T20:50:22.689Z,-2.53
2018-03-02T20:52:52.012Z,-2.34
2018-03-02T20:55:22.228Z,-2.33
2018-03-02T20:57:51.634Z,-2.31
2018-03-02T21:00:21.994Z,-2.27
2018-03-02T21:02:51.343Z,-2.46
2018-03-02T21:05:20.683Z,-2.27
2018-03-02T21:07:50.075Z,-2.42
2018-03-02T21:10:19.382Z,-2.45
2018-03-02T21:12:48.843Z,-2.32
2018-03-02T21:15:18.173Z,-2.35
2018-03-02T21:17:48.875Z,-2.25
2018-03-02T21:20:18.206Z,-2.24
2018-03-02T21:22:47.689Z,-2.20
2018-03-02T21:25:16.979Z,-1.99
2018-03-02T21:27:46.292Z,-2.24
2018-03-02T21:30:15.672Z,-2.35
2018-03-02T21:32:45.966Z,-2.23
2018-03-02T21:35:15.363Z,-2.18
2018-03-02T21:37:44.853Z,-2.31
2018-03-02T21:40:14.471Z,-2.17
2018-03-02T21:42:43.918Z,-2.03
2018-03-02T21:45:13.341Z,-2.26
2018-03-02T21:47:42.718Z,-2.42
2018-03-02T21:50:12.882Z,-2.31
2018-03-02T21:52:42.135Z,-2.35
2018-03-02T21:55:12.405Z,-2.44
2018-03-02T21:57:41.842Z,-2.36
2018-03-02T22:00:11.205Z,-2.15
2018-03-02T22:02:41.333Z,-2.43
2018-03-02T22:05:10.817Z,-2.13
2018-03-02T22:07:40.871Z,-2.30
2018-03-02T22:10:10.247Z,-2.06
2018-03-02T22:12:40.316Z,-2.03
2018-03-02T22:15:09.653Z,-1.92
2018-03-02T22:17:39.742Z,-2.01
2018-03-02T22:20:09.848Z,-1.88
2018-03-02T22:22:39.105Z,-1.85
2018-03-02T22:25:09.188Z,-1.87
2018-03-02T22:27:39.475Z,-1.93
2018-03-02T22:30:08.866Z,-1.79
2018-03-02T22:32:38.082Z,-1.79
2018-03-02T22:35:07.376Z,-1.64
2018-03-02T22:37:36.692Z,-1.55
2018-03-02T22:40:05.965Z,-1.52
2018-03-02T22:42:35.138Z,-1.72
2018-03-02T22:45:05.189Z,-1.76
2018-03-02T22:47:34.565Z,-1.60
2018-03-02T22:50:02.952Z,-1.61
2018-03-02T22:52:31.218Z,-1.62
2018-03-02T22:54:59.500Z,-1.60
2018-03-02T22:57:27.768Z,-1.59
2018-03-02T22:59:56.151Z,-1.68
2018-03-02T23:02:24.436Z,-1.50
2018-03-02T23:04:52.699Z,-1.44
2018-03-02T23:07:20.992Z,-1.42
2018-03-02T23:09:49.263Z,-1.41
2018-03-02T23:12:17.550Z,-1.32
2018-03-02T23:14:45.816Z,-1.30
2018-03-02T23:17:14.085Z,-1.32
2018-03-02T23:19:42.376Z,-1.35
2018-03-02T23:22:10.647Z,-1.45
2018-03-02T23:24:38.908Z,-1.43
2018-03-02T23:27:07.196Z,-1.36
2018-03-02T23:29:35.457Z,-1.30
2018-03-02T23:32:03.719Z,-1.41
2018-03-02T23:34:32.005Z,-1.37
2018-03-02T23:37:00.284Z,-1.33
2018-03-02T23:39:28.637Z,-1.31
2018-03-02T23:41:57.687Z,-1.23
2018-03-02T23:44:25.954Z,-1.17
2018-03-02T23:46:54.215Z,-1.09
2018-03-02T23:49:22.491Z,-1.24
2018-03-02T23:51:50.755Z,-1.27
2018-03-02T23:54:19.022Z,-1.16
2018-03-02T23:56:47.311Z,-1.24
2018-03-02T23:59:15.569Z,-1.18
